Time;durP1;ratioP1;P1;durP2;ratioP2;P2;SDS_P1;SDS_P2;PMS_P1;PMS_P2;Temp;Humidity;BMP_temperature;BMP_pressure;BME280_temperature;BME280_humidity;BME280_pressure;Samples;Min_cycle;Max_cycle;Signal;HPM_P1;HPM_P2
2022/01/16 00:06:45;;;;;;;51.28;20.48;;;;;;;3.68;100.00;101340.13;8326780;28;20512;-64
2022/01/16 00:10:45;;;;;;;51.13;21.42;;;;;;;3.66;100.00;101357.22;8334939;28;20049;-64
2022/01/16 00:14:45;;;;;;;52.75;19.80;;;;;;;3.68;100.00;101366.00;8338757;28;20041;-64
2022/01/16 00:18:49;;;;;;;49.60;20.02;;;;;;;3.67;100.00;101365.16;8313706;28;20088;-64
2022/01/16 00:22:50;;;;;;;48.15;19.90;;;;;;;3.61;100.00;101359.22;8306298;28;20091;-64
2022/01/16 00:26:50;;;;;;;50.55;19.05;;;;;;;3.63;100.00;101355.53;8307427;28;20048;-64
2022/01/16 00:30:52;;;;;;;47.83;19.52;;;;;;;3.59;100.00;101356.63;8325668;28;20406;-64
2022/01/16 00:34:52;;;;;;;48.97;18.98;;;;;;;3.57;100.00;101363.84;8294672;28;20045;-64
2022/01/16 00:38:54;;;;;;;49.33;19.63;;;;;;;3.58;100.00;101370.06;8332408;28;20038;-64
2022/01/16 00:42:55;;;;;;;47.53;20.38;;;;;;;3.57;100.00;101363.00;8324436;28;20099;-64
2022/01/16 00:46:56;;;;;;;51.70;20.38;;;;;;;3.60;100.00;101374.38;8325332;28;20047;-64
2022/01/16 00:50:56;;;;;;;49.95;19.65;;;;;;;3.57;100.00;101381.72;8325101;28;20042;-64
2022/01/16 00:55:02;;;;;;;46.65;19.58;;;;;;;3.44;100.00;101388.56;8308691;28;20037;-64
2022/01/16 00:59:03;;;;;;;55.60;21.33;;;;;;;3.44;100.00;101386.78;8314221;28;20514;-64
2022/01/16 01:03:06;;;;;;;47.55;19.77;;;;;;;3.46;100.00;101382.25;8306663;28;20432;-64
2022/01/16 01:07:06;;;;;;;55.00;21.90;;;;;;;3.38;100.00;101391.56;8335360;28;20103;-64
2022/01/16 01:11:12;;;;;;;55.35;19.33;;;;;;;3.44;100.00;101400.16;8302067;28;20043;-64
2022/01/16 01:15:12;;;;;;;55.47;20.67;;;;;;;3.46;100.00;101408.97;8301150;28;20037;-64
2022/01/16 01:19:13;;;;;;;53.20;20.65;;;;;;;3.44;100.00;101384.13;8301494;28;20112;-64
2022/01/16 01:23:13;;;;;;;47.33;19.98;;;;;;;3.43;100.00;101403.78;8302416;28;20042;-64
2022/01/16 01:27:23;;;;;;;50.10;19.83;;;;;;;3.24;100.00;101412.75;8283865;28;20049;-64
2022/01/16 01:31:26;;;;;;;49.85;19.27;;;;;;;3.12;100.00;101403.50;8301635;28;20053;-64
2022/01/16 01:35:28;;;;;;;44.42;18.63;;;;;;;3.00;100.00;101323.94;8299005;28;20034;-64
2022/01/16 01:39:29;;;;;;;51.30;19.15;;;;;;;3.03;100.00;101318.47;8338298;28;20110;-64
2022/01/16 01:52:02;;;;;;;59.08;21.15;;;;;;;3.34;100.00;101384.63;8420204;28;20044;-64
2022/01/16 01:56:04;;;;;;;58.67;21.45;;;;;;;3.36;100.00;101404.97;8406121;28;20037;-64
2022/01/16 02:00:07;;;;;;;60.05;21.48;;;;;;;3.35;100.00;101411.28;8414973;28;20047;-64
2022/01/16 02:04:07;;;;;;;52.42;18.73;;;;;;;3.41;100.00;101432.38;8379533;28;20052;-64
2022/01/16 02:08:08;;;;;;;57.42;20.65;;;;;;;3.43;100.00;101402.91;8390697;28;20052;-64
2022/01/16 02:12:09;;;;;;;55.97;22.20;;;;;;;3.49;100.00;101408.81;8412734;28;20150;-64
2022/01/16 02:34:41;;;;;;;54.95;24.42;;;;;;;3.77;100.00;101401.19;8385233;28;20037;-64
2022/01/16 02:37:50;;;;;;;53.20;24.67;;;;;;;3.81;100.00;101410.75;8372184;28;20037;-64
2022/01/16 02:41:52;;;;;;;54.53;23.58;;;;;;;3.71;100.00;101404.16;8348933;28;20037;-64
2022/01/16 02:46:09;;;;;;;54.00;23.67;;;;;;;3.61;100.00;101375.28;8339499;28;20052;-64
2022/01/16 02:50:09;;;;;;;49.58;21.02;;;;;;;3.54;100.00;101368.50;8330086;28;20384;-64
2022/01/16 02:54:10;;;;;;;48.92;22.25;;;;;;;3.48;100.00;101369.66;8389724;27;20096;-64
2022/01/16 02:58:10;;;;;;;43.15;22.00;;;;;;;3.42;100.00;101353.06;8376171;28;20096;-64
2022/01/16 03:02:11;;;;;;;48.67;22.58;;;;;;;3.30;100.00;101343.81;8321489;28;20394;-64
2022/01/16 03:06:11;;;;;;;46.25;21.27;;;;;;;3.22;100.00;101340.66;8380113;27;20128;-64
2022/01/16 03:10:49;;;;;;;38.97;19.67;;;;;;;3.13;100.00;101330.44;8421297;27;20510;-64
2022/01/16 03:14:36;;;;;;;50.08;20.45;;;;;;;3.09;100.00;101334.19;8367526;28;20558;-64
2022/01/16 03:22:57;;;;;;;34.83;16.13;;;;;;;2.98;100.00;101341.84;8321369;28;20133;-64
2022/01/16 03:27:01;;;;;;;33.08;15.60;;;;;;;2.83;100.00;101342.56;8320127;28;20037;-64
2022/01/16 03:31:01;;;;;;;40.05;16.95;;;;;;;2.86;100.00;101342.41;8305331;28;20033;-64
2022/01/16 03:35:02;;;;;;;36.25;15.57;;;;;;;2.84;100.00;101322.91;8330552;28;20648;-64
2022/01/16 03:39:04;;;;;;;32.08;15.35;;;;;;;2.89;100.00;101331.59;8329497;28;20135;-64
2022/01/16 03:43:12;;;;;;;41.58;18.25;;;;;;;2.89;100.00;101336.06;8320047;28;20072;-64
2022/01/16 03:47:12;;;;;;;37.67;17.23;;;;;;;2.89;100.00;101323.59;8330448;28;20033;-64
2022/01/16 03:51:13;;;;;;;46.60;18.67;;;;;;;2.92;100.00;101325.22;8331787;28;20086;-64
2022/01/16 03:55:13;;;;;;;38.47;17.77;;;;;;;2.89;100.00;101331.59;8329765;28;20557;-64
2022/01/16 03:59:14;;;;;;;38.78;17.45;;;;;;;2.86;100.00;101346.88;8328952;28;20030;-64
2022/01/16 04:03:15;;;;;;;41.35;18.13;;;;;;;2.86;100.00;101338.88;8328776;28;20406;-64
2022/01/16 04:07:23;;;;;;;34.47;16.38;;;;;;;2.88;100.00;101337.00;8307972;28;22998;-64
2022/01/16 04:11:27;;;;;;;38.67;18.42;;;;;;;2.88;100.00;101323.66;8300436;28;20092;-64
2022/01/16 04:15:34;;;;;;;33.00;16.52;;;;;;;2.94;100.00;101329.59;8331356;28;20465;-64
2022/01/16 04:19:36;;;;;;;37.58;16.95;;;;;;;2.92;100.00;101326.13;8330333;28;20038;-64
2022/01/16 04:23:36;;;;;;;38.38;18.17;;;;;;;2.86;100.00;101334.41;8330281;28;20037;-64
2022/01/16 04:27:37;;;;;;;36.13;17.10;;;;;;;2.91;100.00;101335.06;8330479;28;20036;-64
2022/01/16 04:31:37;;;;;;;41.13;19.15;;;;;;;2.95;100.00;101339.31;8317649;28;20057;-64
2022/01/16 04:35:38;;;;;;;40.67;18.55;;;;;;;2.96;100.00;101343.72;8313312;28;20076;-64
2022/01/16 04:39:47;;;;;;;39.20;18.08;;;;;;;2.99;100.00;101354.25;8330370;28;20095;-64
2022/01/16 04:43:48;;;;;;;45.20;18.23;;;;;;;2.93;100.00;101365.22;8330613;28;20045;-64
2022/01/16 04:47:50;;;;;;;37.33;17.38;;;;;;;2.93;100.00;101369.72;8330433;28;20129;-64
2022/01/16 04:51:50;;;;;;;41.20;18.73;;;;;;;2.96;100.00;101364.22;8331005;28;20033;-64
2022/01/16 04:55:52;;;;;;;43.08;20.20;;;;;;;3.01;100.00;101355.06;8331200;28;20512;-64
2022/01/16 04:59:52;;;;;;;45.72;20.38;;;;;;;3.01;100.00;101356.84;8330302;28;20053;-64
2022/01/16 05:03:53;;;;;;;41.58;18.40;;;;;;;3.04;100.00;101352.25;8329861;28;20030;-63
2022/01/16 05:07:53;;;;;;;43.72;19.38;;;;;;;3.06;100.00;101345.03;8329458;28;20038;-64
2022/01/16 05:11:57;;;;;;;46.22;20.35;;;;;;;3.12;100.00;101350.06;8329124;28;20481;-64
2022/01/16 05:16:58;;;;;;;55.22;22.05;;;;;;;3.20;100.00;101337.19;8329595;28;20045;-63
2022/01/16 05:20:18;;;;;;;52.58;20.85;;;;;;;3.26;100.00;101341.41;8324513;28;20049;-64
2022/01/16 05:24:18;;;;;;;85.75;31.58;;;;;;;3.45;100.00;101332.38;8316204;28;20033;-64
2022/01/16 05:28:19;;;;;;;75.60;28.67;;;;;;;3.63;100.00;101344.84;8329802;28;20042;-64
2022/01/16 05:32:20;;;;;;;89.30;32.88;;;;;;;3.72;100.00;101347.03;8330077;28;20045;-64
2022/01/16 05:36:21;;;;;;;89.63;33.20;;;;;;;3.80;100.00;101339.50;8329770;28;20087;-64
2022/01/16 05:40:21;;;;;;;97.88;37.25;;;;;;;3.92;100.00;101333.53;8329022;28;20030;-64
2022/01/16 05:44:22;;;;;;;115.25;40.08;;;;;;;4.05;100.00;101339.97;8320154;28;20064;-64
2022/01/16 05:48:22;;;;;;;119.40;43.20;;;;;;;4.30;100.00;101338.69;8311687;28;20029;-64
2022/01/16 05:52:22;;;;;;;122.28;44.35;;;;;;;4.37;100.00;101350.81;8328973;28;20113;-64
2022/01/16 05:56:23;;;;;;;111.45;41.78;;;;;;;4.39;100.00;101348.94;8328937;28;20040;-64
2022/01/16 06:00:24;;;;;;;118.15;44.45;;;;;;;4.49;100.00;101339.44;8319093;28;20052;-64
2022/01/16 06:04:24;;;;;;;112.65;44.40;;;;;;;4.54;100.00;101348.94;8296103;28;20445;-64
2022/01/16 06:08:24;;;;;;;109.32;41.58;;;;;;;4.62;100.00;101340.50;8289006;28;20033;-64
2022/01/16 06:12:25;;;;;;;115.30;43.33;;;;;;;4.66;100.00;101344.78;8327959;28;20045;-64
2022/01/16 06:16:25;;;;;;;109.30;43.55;;;;;;;4.73;100.00;101343.47;8327275;28;20049;-64
2022/01/16 06:20:27;;;;;;;111.57;42.00;;;;;;;4.75;100.00;101344.25;8326957;28;20041;-64
2022/01/16 06:24:27;;;;;;;109.50;42.30;;;;;;;4.82;100.00;101333.09;8314118;28;20042;-64
2022/01/16 06:28:29;;;;;;;98.38;41.38;;;;;;;4.88;100.00;101339.97;8325617;28;20029;-64
2022/01/16 06:32:30;;;;;;;100.43;40.15;;;;;;;4.90;100.00;101341.59;8328099;28;20037;-64
2022/01/16 06:36:30;;;;;;;109.70;39.50;;;;;;;4.95;100.00;101344.91;8328766;28;20060;-64
2022/01/16 06:40:31;;;;;;;104.57;40.78;;;;;;;4.96;100.00;101353.78;8328135;28;20045;-64
2022/01/16 06:44:31;;;;;;;102.25;40.55;;;;;;;4.95;100.00;101358.28;8324875;28;20042;-64
2022/01/16 06:48:32;;;;;;;104.55;42.47;;;;;;;4.99;100.00;101369.69;8318713;28;20052;-64
2022/01/16 06:52:32;;;;;;;107.68;43.38;;;;;;;4.87;100.00;101367.69;8330033;28;20034;-64
2022/01/16 06:56:33;;;;;;;94.30;40.47;;;;;;;4.92;100.00;101360.28;8327831;28;20038;-64
2022/01/16 07:00:33;;;;;;;104.35;40.90;;;;;;;4.94;100.00;101369.09;8315809;28;20045;-64
2022/01/16 07:04:34;;;;;;;94.70;40.40;;;;;;;4.98;100.00;101376.00;8308188;28;20081;-64
2022/01/16 07:08:34;;;;;;;101.22;40.47;;;;;;;4.94;100.00;101382.50;8300594;28;20045;-64
2022/01/16 07:12:35;;;;;;;97.18;41.20;;;;;;;4.98;100.00;101376.00;8309889;28;20079;-64
2022/01/16 07:16:35;;;;;;;97.68;39.95;;;;;;;5.03;100.00;101374.78;8329663;28;20041;-64
2022/01/16 07:20:35;;;;;;;91.82;39.28;;;;;;;5.06;100.00;101388.03;8331393;28;20110;-64
2022/01/16 07:24:36;;;;;;;95.72;39.35;;;;;;;5.13;100.00;101385.88;8331693;28;20034;-64
2022/01/16 07:28:37;;;;;;;102.82;39.60;;;;;;;5.18;100.00;101392.72;8326229;28;20037;-64
2022/01/16 07:32:37;;;;;;;92.38;40.10;;;;;;;5.24;100.00;101396.84;8310645;28;20048;-64
2022/01/16 07:36:38;;;;;;;94.25;38.60;;;;;;;5.29;99.77;101410.88;8309575;28;20064;-64
2022/01/16 07:40:39;;;;;;;96.90;40.10;;;;;;;5.31;99.96;101411.66;8311011;28;20104;-64
2022/01/16 07:44:39;;;;;;;89.22;39.05;;;;;;;5.28;100.00;101411.84;8313830;28;20041;-64
2022/01/16 07:48:40;;;;;;;92.47;39.25;;;;;;;5.31;100.00;101427.75;8299772;28;20061;-64
2022/01/16 07:52:40;;;;;;;96.07;39.22;;;;;;;5.36;100.00;101436.38;8319456;28;20065;-64
2022/01/16 07:56:41;;;;;;;95.45;40.20;;;;;;;5.39;100.00;101436.22;8334116;28;20063;-64
2022/01/16 08:00:41;;;;;;;95.07;40.35;;;;;;;5.43;99.72;101453.88;8329359;28;20053;-64
2022/01/16 08:04:42;;;;;;;89.15;39.38;;;;;;;5.44;99.74;101445.75;8315916;28;20049;-64
2022/01/16 08:08:42;;;;;;;100.90;40.65;;;;;;;5.48;100.00;101441.06;8336817;28;20043;-64
2022/01/16 08:12:43;;;;;;;95.65;40.55;;;;;;;5.52;99.81;101439.97;8326106;28;20040;-64
2022/01/16 08:16:43;;;;;;;92.60;39.33;;;;;;;5.51;99.73;101446.25;8304518;28;20056;-64
2022/01/16 08:20:44;;;;;;;95.40;39.55;;;;;;;5.45;99.76;101443.91;8367479;28;20037;-64
2022/01/16 08:24:44;;;;;;;85.43;36.50;;;;;;;5.46;99.89;101448.34;8331685;28;20045;-64
2022/01/16 08:28:44;;;;;;;95.32;38.03;;;;;;;5.45;100.00;101441.25;8338595;28;20041;-64
2022/01/16 08:32:45;;;;;;;87.80;37.67;;;;;;;5.54;99.50;101451.44;8333897;28;20053;-64
2022/01/16 08:36:45;;;;;;;98.88;41.05;;;;;;;5.48;99.94;101452.66;8334791;28;20034;-64
2022/01/16 08:40:46;;;;;;;91.25;35.95;;;;;;;5.53;99.21;101452.41;8334627;28;20041;-64
2022/01/16 08:44:46;;;;;;;86.00;37.50;;;;;;;5.59;99.00;101460.13;8331314;28;20199;-64
2022/01/16 08:48:48;;;;;;;84.82;35.08;;;;;;;5.60;98.57;101475.25;8336330;28;20045;-64
2022/01/16 08:52:48;;;;;;;90.95;38.17;;;;;;;5.61;98.56;101487.69;8338774;28;20121;-64
2022/01/16 08:56:49;;;;;;;94.38;38.40;;;;;;;5.61;98.89;101485.00;8312700;28;20042;-64
2022/01/16 09:00:50;;;;;;;82.40;34.55;;;;;;;5.62;98.58;101492.13;8300179;28;20038;-64
2022/01/16 09:04:50;;;;;;;81.38;33.70;;;;;;;5.64;98.85;101500.94;8302447;28;20034;-64
2022/01/16 09:08:52;;;;;;;87.63;36.47;;;;;;;5.62;99.23;101502.84;8311012;28;20049;-64
2022/01/16 09:12:53;;;;;;;89.80;35.55;;;;;;;5.66;98.42;101509.78;8327554;28;20462;-64
2022/01/16 09:16:54;;;;;;;90.10;35.00;;;;;;;5.68;98.83;101513.25;8315861;28;20573;-64
2022/01/16 09:20:56;;;;;;;84.00;34.63;;;;;;;5.70;98.31;101516.69;8321333;28;20048;-64
2022/01/16 09:24:56;;;;;;;86.80;32.70;;;;;;;5.75;97.92;101525.38;8324209;28;20098;-64
2022/01/16 09:28:57;;;;;;;87.75;32.90;;;;;;;5.79;97.25;101518.88;8326242;28;20064;-64
2022/01/16 09:32:58;;;;;;;79.60;32.30;;;;;;;5.79;97.10;101516.19;8326344;28;20085;-64
2022/01/16 09:36:58;;;;;;;95.75;32.40;;;;;;;5.74;98.43;101520.97;8328266;28;20127;-64
2022/01/16 09:40:59;;;;;;;81.57;32.78;;;;;;;5.84;98.68;101516.84;8325680;28;20038;-64
2022/01/16 09:45:01;;;;;;;77.70;31.67;;;;;;;5.98;97.75;101522.31;8307904;28;20053;-64
2022/01/16 09:49:04;;;;;;;79.03;31.80;;;;;;;6.19;95.90;101525.56;8297067;28;20036;-64
2022/01/16 09:53:05;;;;;;;76.45;30.90;;;;;;;6.51;94.30;101537.97;8322100;28;20037;-64
2022/01/16 09:57:06;;;;;;;72.38;28.30;;;;;;;6.58;92.28;101548.28;8330564;28;20033;-64
2022/01/16 10:01:07;;;;;;;70.68;28.67;;;;;;;6.41;93.03;101553.78;8325784;28;20053;-64
2022/01/16 10:05:30;;;;;;;80.97;30.25;;;;;;;6.27;93.09;101542.09;8326263;28;20557;-64
2022/01/16 10:09:31;;;;;;;78.07;30.92;;;;;;;6.27;93.67;101559.06;8324632;28;20037;-64
2022/01/16 10:13:42;;;;;;;78.50;30.38;;;;;;;6.24;94.45;101566.41;8324106;28;20040;-64
2022/01/16 10:17:45;;;;;;;81.50;29.70;;;;;;;6.24;95.02;101558.38;8322930;28;20135;-64
2022/01/16 10:21:46;;;;;;;80.63;31.90;;;;;;;6.23;95.66;101559.34;8324756;28;20041;-64
2022/01/16 10:25:48;;;;;;;83.57;31.75;;;;;;;6.21;95.68;101556.72;8324416;28;20511;-64
2022/01/16 10:29:52;;;;;;;81.50;31.60;;;;;;;6.23;95.79;101554.84;8323818;28;20057;-65
2022/01/16 10:33:54;;;;;;;;;;;;;;;6.24;96.93;101556.56;8324354;28;20499;-65
2022/01/16 10:37:58;;;;;;;83.63;32.60;;;;;;;6.26;97.06;101551.97;8335254;28;19944;-65
2022/01/16 10:42:18;;;;;;;81.93;31.75;;;;;;;6.29;97.63;101559.84;8314981;28;20791;-65
2022/01/16 10:46:25;;;;;;;91.38;33.20;;;;;;;6.33;97.90;101556.03;8331664;28;20128;-65
2022/01/16 10:50:32;;;;;;;87.85;31.85;;;;;;;6.30;97.78;101550.84;8329754;28;20497;-65
2022/01/16 10:54:35;;;;;;;79.43;32.13;;;;;;;6.31;98.16;101549.88;8344511;28;20041;-64
2022/01/16 11:02:51;;;;;;;76.78;31.02;;;;;;;6.41;97.87;101558.28;8405242;27;20412;-65
2022/01/16 11:07:06;;;;;;;77.97;31.15;;;;;;;6.40;98.40;101552.03;8403236;28;20044;-65
2022/01/16 11:11:07;;;;;;;80.20;30.55;;;;;;;6.42;97.66;101554.63;8384969;28;20098;-65
2022/01/16 11:15:08;;;;;;;73.38;29.98;;;;;;;6.42;98.21;101549.25;8410868;27;20040;-65
2022/01/16 11:19:09;;;;;;;82.00;31.77;;;;;;;6.45;98.32;101546.38;8415568;27;20036;-65
2022/01/16 11:27:17;;;;;;;80.57;32.10;;;;;;;6.58;97.50;101567.09;8415919;28;20513;-65
2022/01/16 11:31:18;;;;;;;69.38;30.00;;;;;;;6.62;97.56;101583.91;8411480;27;20041;-65
2022/01/16 11:35:19;;;;;;;70.45;29.58;;;;;;;6.65;97.21;101579.19;8411772;27;20098;-65
2022/01/16 11:39:20;;;;;;;67.32;28.92;;;;;;;6.67;96.64;101579.97;8400087;27;20464;-65
2022/01/16 11:43:31;;;;;;;72.40;28.45;;;;;;;6.72;97.60;101580.59;8416839;28;20036;-64
2022/01/16 11:47:32;;;;;;;73.80;30.80;;;;;;;6.79;96.88;101584.63;8388175;28;20440;-65
2022/01/16 11:55:47;;;;;;;67.03;28.98;;;;;;;6.90;96.40;101584.00;8430728;27;20478;-64
2022/01/16 11:59:50;;;;;;;70.78;29.33;;;;;;;6.92;96.49;101582.94;8437874;27;20051;-65
2022/01/16 12:03:50;;;;;;;73.70;30.10;;;;;;;7.18;95.32;101581.38;8440678;27;20086;-65
2022/01/16 12:07:53;;;;;;;72.07;30.13;;;;;;;7.36;93.51;101577.56;8439696;28;20059;-65
2022/01/16 12:11:53;;;;;;;69.40;28.50;;;;;;;7.67;92.20;101578.25;8440724;27;20047;-65
2022/01/16 12:16:33;;;;;;;64.35;26.65;;;;;;;7.72;91.51;101576.13;8456513;27;20059;-65
2022/01/16 12:20:37;;;;;;;61.78;26.65;;;;;;;7.65;91.79;101579.28;8483788;27;20041;-65
2022/01/16 12:24:41;;;;;;;57.55;26.00;;;;;;;7.30;91.84;101578.81;8474077;27;20041;-65
2022/01/16 12:28:42;;;;;;;;;;;;;;;7.19;93.95;101583.97;8491340;27;20042;-65
2022/01/16 12:37:48;;;;;;;52.40;24.75;;;;;;;7.09;93.83;101569.38;8416408;27;20458;-64
2022/01/16 12:41:53;;;;;;;59.40;25.42;;;;;;;6.98;95.00;101566.44;8421433;28;20126;-64
2022/01/16 12:45:54;;;;;;;61.10;25.85;;;;;;;6.98;94.96;101566.44;8421177;28;20059;-64
2022/01/16 12:50:11;;;;;;;61.15;24.23;;;;;;;6.94;95.46;101572.09;8404797;27;20029;-64
2022/01/16 12:54:14;;;;;;;52.95;23.48;;;;;;;6.95;95.54;101566.63;8403904;28;20044;-64
2022/01/16 12:58:22;;;;;;;50.60;22.07;;;;;;;6.88;95.65;101554.53;8407912;28;20048;-64
2022/01/16 13:02:22;;;;;;;48.08;21.52;;;;;;;6.86;95.13;101542.97;8406436;28;20040;-64
2022/01/16 13:06:27;;;;;;;49.75;22.05;;;;;;;6.86;96.05;101556.44;8406821;28;20511;-64
2022/01/16 13:10:27;;;;;;;;;;;;;;;6.85;95.97;101556.50;8421552;27;20048;-64
2022/01/16 13:14:31;;;;;;;44.20;20.23;;;;;;;6.83;95.96;101551.22;8398046;27;19935;-64
2022/01/16 13:18:32;;;;;;;42.50;19.30;;;;;;;6.83;96.62;101556.59;8388992;28;20056;-64
2022/01/16 13:22:37;;;;;;;41.83;18.80;;;;;;;6.84;96.84;101553.00;8388975;28;20044;-64
2022/01/16 13:26:37;;;;;;;40.13;18.35;;;;;;;6.86;97.12;101560.97;8388803;28;20044;-64
2022/01/16 13:30:38;;;;;;;39.60;18.90;;;;;;;6.88;96.94;101565.28;8387946;28;20057;-64
2022/01/16 13:34:44;;;;;;;44.97;19.17;;;;;;;6.86;97.64;101559.09;8387138;28;20083;-64
2022/01/16 13:38:46;;;;;;;39.33;18.73;;;;;;;6.87;98.21;101582.38;8390952;27;20412;-64
2022/01/16 13:43:03;;;;;;;41.17;18.67;;;;;;;6.82;98.41;101581.75;8389168;28;20060;-64
2022/01/16 13:47:04;;;;;;;38.08;17.90;;;;;;;6.88;98.35;101585.91;8374490;28;20033;-64
2022/01/16 13:51:05;;;;;;;41.53;19.23;;;;;;;6.93;98.66;101590.06;8344057;28;20044;-64
2022/01/16 13:55:08;;;;;;;41.88;20.88;;;;;;;6.89;98.33;101591.19;8354872;28;20055;-64
2022/01/16 13:59:11;;;;;;;39.40;18.67;;;;;;;6.85;99.08;101600.41;8420730;28;20032;-64
2022/01/16 14:03:15;;;;;;;43.97;19.33;;;;;;;6.85;98.97;101596.84;8466491;27;20085;-64
2022/01/16 14:07:23;;;;;;;40.63;19.23;;;;;;;6.86;99.49;101599.44;8456868;28;20043;-64
2022/01/16 14:11:36;;;;;;;35.40;19.00;;;;;;;6.88;99.42;101591.28;8458619;28;20042;-64
2022/01/16 14:15:38;;;;;;;39.25;19.20;;;;;;;6.78;100.00;101580.22;8447470;27;20130;-65
2022/01/16 14:20:01;;;;;;;38.97;17.55;;;;;;;6.74;100.00;101599.31;8457415;27;20052;-65
2022/01/16 14:23:59;;;;;;;42.17;18.65;;;;;;;6.69;100.00;101596.88;8457813;28;20122;-67
2022/01/16 14:27:59;;;;;;;36.35;19.00;;;;;;;6.66;100.00;101602.44;8465412;27;20407;-65
2022/01/16 14:32:00;;;;;;;39.80;19.20;;;;;;;6.59;100.00;101594.81;8465346;27;20076;-65
2022/01/16 14:36:00;;;;;;;41.60;20.13;;;;;;;6.50;100.00;101598.91;8464448;27;20035;-64
2022/01/16 14:40:02;;;;;;;47.25;22.08;;;;;;;6.34;100.00;101610.63;8465631;28;20032;-65
2022/01/16 14:44:03;;;;;;;45.42;19.65;;;;;;;6.25;100.00;101617.34;8465621;27;20042;-64
2022/01/16 14:48:04;;;;;;;43.55;19.30;;;;;;;6.18;100.00;101615.97;8466324;27;20053;-64
2022/01/16 14:52:06;;;;;;;43.40;20.08;;;;;;;6.20;100.00;101616.75;8461397;28;20035;-64
2022/01/16 14:56:06;;;;;;;39.53;18.77;;;;;;;6.19;100.00;101628.44;8465073;28;20040;-64
2022/01/16 15:00:07;;;;;;;40.88;19.00;;;;;;;6.23;100.00;101624.66;8450607;28;20040;-64
2022/01/16 15:04:09;;;;;;;43.63;18.13;;;;;;;6.22;100.00;101624.75;8446450;28;20392;-64
2022/01/16 15:08:09;;;;;;;45.00;20.95;;;;;;;6.22;100.00;101614.84;8457087;28;20059;-64
2022/01/16 15:12:10;;;;;;;45.47;19.70;;;;;;;6.24;100.00;101623.69;8445080;28;20031;-64
2022/01/16 15:16:12;;;;;;;43.03;21.20;;;;;;;6.22;100.00;101638.16;8462245;28;20046;-64
2022/01/16 15:20:19;;;;;;;48.10;20.13;;;;;;;6.20;100.00;101646.31;8461115;28;20044;-64
2022/01/16 15:24:20;;;;;;;48.72;21.42;;;;;;;6.20;100.00;101651.66;8463076;28;20655;-64
2022/01/16 15:28:20;;;;;;;41.50;18.67;;;;;;;6.22;100.00;101660.50;8460767;28;20267;-64
2022/01/16 15:32:21;;;;;;;46.10;21.77;;;;;;;6.19;100.00;101660.66;8448061;28;20051;-64
2022/01/16 15:36:22;;;;;;;50.10;22.15;;;;;;;6.23;100.00;101659.56;8439574;27;20669;-65
2022/01/16 15:40:22;;;;;;;53.10;22.15;;;;;;;6.21;100.00;101664.13;8477239;27;20355;-65
2022/01/16 15:44:23;;;;;;;48.30;20.92;;;;;;;6.15;100.00;101659.09;8476536;27;20824;-65
2022/01/16 15:48:24;;;;;;;52.92;22.23;;;;;;;6.17;100.00;101661.72;8479504;27;20605;-65
2022/01/16 15:52:24;;;;;;;46.28;20.25;;;;;;;6.14;100.00;101659.19;8457774;28;20031;-65
2022/01/16 15:56:25;;;;;;;56.15;22.50;;;;;;;6.11;100.00;101651.31;8441791;28;20050;-65
2022/01/16 16:00:28;;;;;;;54.47;22.58;;;;;;;6.10;100.00;101663.84;8460310;28;20054;-65
2022/01/16 16:04:28;;;;;;;56.83;23.30;;;;;;;6.09;100.00;101664.81;8460267;28;20039;-65
2022/01/16 16:08:29;;;;;;;53.30;22.42;;;;;;;6.07;100.00;101661.34;8460627;28;20537;-65
2022/01/16 16:12:29;;;;;;;53.58;21.80;;;;;;;6.03;100.00;101659.78;8459225;28;20039;-65
2022/01/16 16:16:30;;;;;;;55.22;22.45;;;;;;;6.04;100.00;101666.91;8460305;28;20036;-65
2022/01/16 16:20:30;;;;;;;59.72;24.02;;;;;;;6.04;100.00;101657.00;8459373;28;20503;-65
2022/01/16 16:24:32;;;;;;;55.30;22.60;;;;;;;6.03;100.00;101681.25;8461558;28;20039;-65
2022/01/16 16:28:32;;;;;;;53.25;22.20;;;;;;;6.04;100.00;101666.91;8460060;28;20134;-65
2022/01/16 16:32:33;;;;;;;52.03;20.92;;;;;;;6.10;100.00;101700.59;8444563;28;20070;-65
2022/01/16 16:36:35;;;;;;;53.25;21.65;;;;;;;6.09;100.00;101718.50;8441093;28;20134;-65
2022/01/16 16:40:35;;;;;;;50.45;22.65;;;;;;;6.13;100.00;101729.94;8462023;28;20031;-65
2022/01/16 16:44:36;;;;;;;49.75;20.75;;;;;;;6.16;100.00;101735.16;8461298;28;20518;-65
2022/01/16 16:48:37;;;;;;;53.50;22.23;;;;;;;6.18;100.00;101728.75;8459859;28;20031;-65
2022/01/16 16:52:39;;;;;;;50.10;22.05;;;;;;;6.19;100.00;101743.88;8459903;28;20046;-65
2022/01/16 16:56:39;;;;;;;50.47;21.27;;;;;;;6.23;100.00;101732.06;8456564;28;20047;-65
2022/01/16 17:00:40;;;;;;;58.50;22.33;;;;;;;6.22;100.00;101745.56;8460468;28;20046;-64
2022/01/16 17:04:43;;;;;;;52.35;22.13;;;;;;;6.28;100.00;101739.88;8458940;28;20036;-65
2022/01/16 17:08:44;;;;;;;53.20;21.73;;;;;;;6.27;100.00;101733.63;8460414;28;20036;-65
2022/01/16 17:12:44;;;;;;;55.08;24.20;;;;;;;6.27;100.00;101722.88;8461232;28;20038;-65
2022/01/16 17:16:48;;;;;;;56.97;23.92;;;;;;;6.29;100.00;101710.25;8461080;28;20050;-65
2022/01/16 17:20:49;;;;;;;58.00;22.20;;;;;;;6.26;100.00;101696.09;8444303;28;20036;-65
2022/01/16 17:24:56;;;;;;;51.67;23.05;;;;;;;6.28;100.00;101702.28;8441996;28;20095;-65
2022/01/16 17:28:56;;;;;;;53.58;22.30;;;;;;;6.26;100.00;101718.47;8466343;27;20036;-65
2022/01/16 17:32:56;;;;;;;62.58;25.52;;;;;;;6.26;100.00;101737.25;8465288;27;20113;-65
2022/01/16 17:36:57;;;;;;;56.08;24.02;;;;;;;6.29;100.00;101742.47;8476225;27;20035;-65
2022/01/16 17:40:58;;;;;;;55.40;23.33;;;;;;;6.31;100.00;101756.66;8500211;27;20035;-65
2022/01/16 17:44:58;;;;;;;55.13;23.98;;;;;;;6.32;100.00;101757.53;8498894;27;20066;-65
2022/01/16 17:48:59;;;;;;;55.25;23.23;;;;;;;6.32;100.00;101763.78;8483346;27;20434;-65
2022/01/16 17:52:59;;;;;;;56.10;22.92;;;;;;;6.35;100.00;101769.00;8463375;27;20657;-65
2022/01/16 17:57:00;;;;;;;56.70;24.88;;;;;;;6.34;100.00;101777.97;8465397;28;20130;-65
2022/01/16 18:01:00;;;;;;;58.97;27.20;;;;;;;6.41;100.00;101794.63;8465742;27;20497;-65
2022/01/16 18:05:02;;;;;;;57.00;25.70;;;;;;;6.34;100.00;101791.41;8464525;28;20047;-64
2022/01/16 18:09:03;;;;;;;54.67;22.88;;;;;;;6.38;100.00;101792.13;8461002;28;20036;-65
2022/01/16 18:13:03;;;;;;;52.28;24.17;;;;;;;6.36;100.00;101794.00;8465778;28;20101;-64
2022/01/16 18:17:05;;;;;;;66.22;28.27;;;;;;;6.34;100.00;101807.50;8464154;28;20035;-64
2022/01/16 18:21:05;;;;;;;52.90;23.02;;;;;;;6.31;100.00;101812.19;8464149;28;20042;-64
2022/01/16 18:25:06;;;;;;;55.67;23.58;;;;;;;6.29;100.00;101817.66;8464490;28;20040;-64
2022/01/16 18:29:07;;;;;;;62.92;24.23;;;;;;;6.27;100.00;101832.97;8463389;28;20027;-64
2022/01/16 18:33:08;;;;;;;57.38;23.02;;;;;;;6.26;100.00;101833.94;8463712;28;20036;-64
2022/01/16 18:37:08;;;;;;;55.78;21.90;;;;;;;6.26;100.00;101836.63;8457358;27;20058;-64
2022/01/16 18:41:08;;;;;;;54.63;24.02;;;;;;;6.29;100.00;101843.63;8498806;27;20468;-64
2022/01/16 18:45:11;;;;;;;62.63;25.10;;;;;;;6.28;100.00;101845.44;8496730;27;20039;-64
2022/01/16 18:49:12;;;;;;;54.30;23.85;;;;;;;6.30;100.00;101856.97;8474735;27;20050;-64
2022/01/16 18:53:14;;;;;;;55.65;23.77;;;;;;;6.32;100.00;101876.56;8463995;28;20032;-64
2022/01/16 18:57:14;;;;;;;57.00;23.80;;;;;;;6.27;100.00;101878.63;8464400;27;20059;-64
2022/01/16 19:01:15;;;;;;;55.28;23.80;;;;;;;6.29;100.00;101882.09;8463745;27;20105;-64
2022/01/16 19:05:15;;;;;;;53.13;23.20;;;;;;;6.30;100.00;101873.09;8445141;28;20043;-64
2022/01/16 19:09:16;;;;;;;54.60;22.05;;;;;;;6.31;100.00;101877.50;8439465;27;20044;-64
2022/01/16 19:13:16;;;;;;;53.78;22.17;;;;;;;6.32;100.00;101881.06;8446637;28;20032;-64
2022/01/16 19:17:17;;;;;;;86.28;36.00;;;;;;;6.37;100.00;101877.19;8463355;27;20170;-64